createdAt,value
2018-08-23T00:01:14.533Z,92.60
2018-08-23T00:03:43.118Z,92.70
2018-08-23T00:06:11.651Z,92.90
2018-08-23T00:08:44.437Z,92.90
2018-08-23T00:11:13.230Z,92.70
2018-08-23T00:13:44.074Z,92.60
2018-08-23T00:16:13.043Z,92.50
2018-08-23T00:18:41.659Z,92.60
2018-08-23T00:21:15.412Z,92.80
2018-08-23T00:23:49.582Z,93.00
2018-08-23T00:26:18.169Z,93.10
2018-08-23T00:28:46.750Z,93.10
2018-08-23T00:31:15.489Z,93.10
2018-08-23T00:33:44.147Z,93.00
2018-08-23T00:36:12.694Z,93.20
2018-08-23T00:38:41.247Z,93.40
2018-08-23T00:41:09.860Z,93.50
2018-08-23T00:43:38.455Z,93.60
2018-08-23T00:46:12.350Z,93.50
2018-08-23T00:48:40.892Z,93.40
2018-08-23T00:51:09.453Z,93.00
2018-08-23T00:53:38.202Z,92.20
2018-08-23T00:56:21.374Z,91.80
2018-08-23T00:58:54.893Z,91.40
2018-08-23T01:01:23.487Z,91.30
2018-08-23T01:03:52.075Z,91.40
2018-08-23T01:06:25.354Z,91.70
2018-08-23T01:08:53.919Z,91.90
2018-08-23T01:11:22.474Z,92.00
2018-08-23T01:13:51.052Z,92.20
2018-08-23T01:16:19.566Z,92.60
2018-08-23T01:18:48.126Z,93.00
2018-08-23T01:21:16.718Z,93.30
2018-08-23T01:23:45.246Z,93.80
2018-08-23T01:26:13.838Z,93.60
2018-08-23T01:28:42.367Z,93.60
2018-08-23T01:31:23.358Z,93.60
2018-08-23T01:33:55.614Z,93.40
2018-08-23T01:36:29.266Z,93.40
2018-08-23T01:38:57.830Z,93.40
2018-08-23T01:41:26.365Z,93.40
2018-08-23T01:43:54.890Z,93.50
2018-08-23T01:46:30.206Z,93.40
2018-08-23T01:48:59.032Z,93.40
2018-08-23T01:51:27.614Z,93.30
2018-08-23T01:53:56.153Z,93.10
2018-08-23T01:56:24.678Z,92.80
2018-08-23T01:58:53.275Z,92.90
2018-08-23T02:01:22.520Z,93.00
2018-08-23T02:03:51.090Z,93.00
2018-08-23T02:06:19.647Z,93.20
2018-08-23T02:08:48.271Z,93.20
2018-08-23T02:11:16.814Z,93.40
2018-08-23T02:13:48.619Z,93.20
2018-08-23T02:16:17.163Z,93.30
2018-08-23T02:18:45.723Z,93.00
2018-08-23T02:21:14.306Z,93.10
2018-08-23T02:23:59.017Z,93.20
2018-08-23T02:26:27.582Z,93.30
2018-08-23T02:28:56.111Z,93.30
2018-08-23T02:31:24.731Z,93.10
2018-08-23T02:33:53.295Z,93.10
2018-08-23T02:36:23.145Z,92.80
2018-08-23T02:39:04.723Z,92.70
2018-08-23T02:41:33.327Z,92.60
2018-08-23T02:44:01.906Z,92.70
2018-08-23T02:46:32.267Z,93.00
2018-08-23T02:49:00.866Z,93.00
2018-08-23T02:51:42.656Z,92.90
2018-08-23T02:54:12.630Z,93.10
2018-08-23T02:56:45.832Z,92.50
2018-08-23T02:59:14.388Z,92.40
2018-08-23T03:01:48.351Z,92.10
2018-08-23T03:04:19.012Z,92.10
2018-08-23T03:06:52.129Z,92.10
2018-08-23T03:09:23.721Z,92.10
2018-08-23T03:11:54.366Z,92.10
2018-08-23T03:14:23.654Z,92.20
2018-08-23T03:17:26.535Z,92.40
2018-08-23T03:20:07.999Z,92.30
2018-08-23T03:22:36.878Z,92.30
2018-08-23T03:25:07.113Z,92.40
2018-08-23T03:27:35.665Z,92.30
2018-08-23T03:30:05.980Z,92.50
2018-08-23T03:32:34.531Z,92.70
2018-08-23T03:35:03.164Z,92.80
2018-08-23T03:37:31.688Z,93.10
2018-08-23T03:40:00.216Z,93.10
2018-08-23T03:42:29.071Z,93.00
2018-08-23T03:44:58.463Z,92.70
2018-08-23T03:47:27.643Z,93.10
2018-08-23T03:49:56.251Z,93.10
2018-08-23T03:52:30.262Z,92.90
2018-08-23T03:55:00.774Z,93.20
2018-08-23T03:57:34.528Z,93.40
2018-08-23T04:00:03.235Z,94.00
2018-08-23T04:02:31.908Z,94.30
2018-08-23T04:05:08.394Z,94.50
2018-08-23T04:07:38.379Z,94.70
2018-08-23T04:10:07.015Z,94.50
2018-08-23T04:12:37.477Z,94.30
2018-08-23T04:15:18.600Z,94.20
2018-08-23T04:17:47.843Z,94.30
2018-08-23T04:20:16.465Z,94.20
2018-08-23T04:22:45.028Z,94.30
2018-08-23T04:25:13.628Z,94.40
2018-08-23T04:27:42.191Z,94.40
2018-08-23T04:30:10.967Z,94.10
2018-08-23T04:32:41.997Z,93.80
2018-08-23T04:35:13.195Z,94.00
2018-08-23T04:37:41.745Z,94.00
2018-08-23T04:40:12.463Z,93.90
2018-08-23T04:42:41.006Z,93.40
2018-08-23T04:45:11.071Z,93.50
2018-08-23T04:47:45.107Z,93.70
2018-08-23T04:50:14.272Z,93.40
2018-08-23T04:52:43.236Z,93.40
2018-08-23T04:55:11.767Z,92.90
2018-08-23T04:57:40.342Z,92.70
2018-08-23T05:00:08.945Z,92.90
2018-08-23T05:02:37.477Z,92.80
2018-08-23T05:05:06.264Z,93.20
2018-08-23T05:07:34.837Z,93.00
2018-08-23T05:10:03.486Z,93.20
2018-08-23T05:12:32.004Z,92.70
2018-08-23T05:15:00.572Z,92.70
2018-08-23T05:17:29.125Z,92.60
2018-08-23T05:19:57.686Z,92.20
2018-08-23T05:22:26.231Z,92.20
2018-08-23T05:24:58.991Z,91.90
2018-08-23T05:27:27.622Z,91.50
2018-08-23T05:29:56.289Z,90.60
2018-08-23T05:32:24.803Z,90.20
2018-08-23T05:34:53.341Z,88.80
2018-08-23T05:37:21.889Z,88.30
2018-08-23T05:39:52.886Z,88.20
2018-08-23T05:42:33.935Z,85.50
2018-08-23T05:45:02.515Z,83.90
2018-08-23T05:47:31.978Z,82.80
2018-08-23T05:50:00.528Z,83.20
2018-08-23T05:52:29.067Z,82.90
2018-08-23T05:54:57.634Z,83.40
2018-08-23T05:57:26.186Z,84.80
2018-08-23T05:59:55.558Z,84.90
2018-08-23T06:02:24.151Z,84.50
2018-08-23T06:04:53.465Z,84.50
2018-08-23T06:07:22.023Z,84.60
2018-08-23T06:09:50.555Z,85.40
2018-08-23T06:12:19.123Z,85.40
2018-08-23T06:14:47.667Z,85.10
2018-08-23T06:17:16.203Z,84.70
2018-08-23T06:19:44.762Z,83.40
2018-08-23T06:22:14.112Z,82.20
2018-08-23T06:24:42.682Z,81.20
2018-08-23T06:27:11.296Z,80.30
2018-08-23T06:29:39.899Z,79.00
2018-08-23T06:32:09.801Z,76.30
2018-08-23T06:34:42.231Z,72.90
2018-08-23T06:37:10.811Z,68.80
2018-08-23T06:39:41.174Z,66.10
2018-08-23T06:42:09.766Z,65.40
2018-08-23T06:44:48.225Z,65.80
2018-08-23T06:47:19.014Z,67.00
2018-08-23T06:49:48.842Z,68.50
2018-08-23T06:52:27.096Z,67.20
2018-08-23T06:54:56.309Z,67.80
2018-08-23T06:57:24.936Z,67.70
2018-08-23T06:59:53.472Z,68.80
2018-08-23T07:02:22.079Z,70.30
2018-08-23T07:04:50.650Z,70.90
2018-08-23T07:07:20.074Z,71.50
2018-08-23T07:09:48.662Z,72.20
2018-08-23T07:12:20.320Z,72.80
2018-08-23T07:14:50.157Z,73.40
2018-08-23T07:17:24.043Z,73.20
2018-08-23T07:19:52.726Z,72.70
2018-08-23T07:22:26.251Z,72.40
2018-08-23T07:24:56.384Z,72.10
2018-08-23T07:27:24.918Z,71.90
2018-08-23T07:29:55.595Z,70.50
2018-08-23T07:32:25.329Z,70.90
2018-08-23T07:35:00.087Z,70.30
2018-08-23T07:37:29.032Z,70.30
2018-08-23T07:40:02.905Z,70.30
2018-08-23T07:42:32.554Z,70.30
2018-08-23T07:45:02.364Z,70.00
2018-08-23T07:47:31.545Z,71.30
2018-08-23T07:50:01.295Z,72.20
2018-08-23T07:52:31.006Z,70.90
2018-08-23T07:54:59.611Z,67.80
2018-08-23T07:57:30.962Z,66.60
2018-08-23T08:00:00.663Z,65.20
2018-08-23T08:02:29.846Z,64.30
2018-08-23T08:04:58.913Z,65.90
2018-08-23T08:07:28.643Z,65.80
2018-08-23T08:09:58.834Z,65.70
2018-08-23T08:12:36.138Z,62.70
2018-08-23T08:15:08.758Z,61.50
2018-08-23T08:17:37.299Z,59.00
2018-08-23T08:20:07.039Z,56.40
2018-08-23T08:22:35.644Z,54.00
2018-08-23T08:25:24.994Z,52.70
2018-08-23T08:27:53.564Z,51.80
2018-08-23T08:30:32.040Z,50.20
2018-08-23T08:33:00.606Z,47.10
2018-08-23T08:35:29.175Z,45.60
2018-08-23T08:37:57.781Z,44.00
2018-08-23T08:40:26.606Z,43.50
2018-08-23T08:42:55.163Z,42.80
2018-08-23T08:45:26.759Z,45.20
2018-08-23T08:48:05.175Z,45.80
2018-08-23T08:50:38.242Z,46.10
2018-08-23T08:53:06.819Z,48.90
2018-08-23T08:55:35.372Z,47.70
2018-08-23T08:58:04.028Z,47.80
2018-08-23T09:00:36.875Z,47.60
2018-08-23T09:03:05.475Z,48.10
2018-08-23T09:05:34.155Z,47.60
2018-08-23T09:08:02.728Z,47.50
2018-08-23T09:10:31.336Z,50.40
2018-08-23T09:12:59.911Z,52.30
2018-08-23T09:15:28.437Z,52.90
2018-08-23T09:17:57.027Z,53.50
2018-08-23T09:20:26.244Z,53.20
2018-08-23T09:22:55.715Z,53.40
2018-08-23T09:25:26.101Z,53.80
2018-08-23T09:27:54.671Z,53.80
2018-08-23T09:30:30.491Z,53.70
2018-08-23T09:33:03.223Z,53.80
2018-08-23T09:35:32.976Z,53.00
2018-08-23T09:38:06.027Z,52.10
2018-08-23T09:40:34.596Z,52.00
2018-08-23T09:43:03.267Z,51.90
2018-08-23T09:45:32.938Z,51.10
2018-08-23T09:48:01.511Z,49.40
2018-08-23T09:50:30.100Z,47.90
2018-08-23T09:52:58.627Z,44.70
2018-08-23T09:55:31.026Z,40.80
2018-08-23T09:58:00.019Z,39.30
2018-08-23T10:00:33.746Z,39.90
2018-08-23T10:03:07.455Z,40.50
2018-08-23T10:06:44.940Z,40.40
2018-08-23T10:09:24.912Z,42.00
2018-08-23T10:11:58.615Z,41.90
2018-08-23T10:14:32.284Z,39.20
2018-08-23T10:17:06.045Z,38.00
2018-08-23T10:19:39.905Z,38.30
2018-08-23T10:22:13.779Z,39.10
2018-08-23T10:24:42.333Z,39.00
2018-08-23T10:27:10.877Z,39.40
2018-08-23T10:29:39.451Z,40.10
2018-08-23T10:32:08.003Z,37.80
2018-08-23T10:34:36.496Z,33.70
2018-08-23T10:37:05.101Z,30.30
2018-08-23T10:39:33.639Z,28.30
2018-08-23T10:42:02.234Z,27.30
2018-08-23T10:44:30.790Z,26.10
2018-08-23T10:46:59.390Z,24.70
2018-08-23T10:49:27.950Z,24.60
2018-08-23T10:51:56.456Z,25.90
2018-08-23T10:54:25.035Z,28.20
2018-08-23T10:56:53.575Z,29.10
2018-08-23T10:59:22.124Z,30.20
2018-08-23T11:01:50.745Z,29.60
2018-08-23T11:04:19.271Z,28.60
2018-08-23T11:06:53.143Z,27.90
2018-08-23T11:09:26.915Z,28.60
2018-08-23T11:11:55.547Z,29.00
2018-08-23T11:14:29.380Z,30.00
2018-08-23T11:17:03.381Z,32.10
2018-08-23T11:21:38.663Z,32.60
2018-08-23T11:24:07.296Z,34.10
2018-08-23T11:26:35.845Z,34.00
2018-08-23T11:29:04.389Z,34.90
2018-08-23T11:31:33.065Z,34.80
2018-08-23T11:34:01.579Z,32.80
2018-08-23T11:36:30.128Z,33.50
2018-08-23T11:38:58.695Z,34.40
2018-08-23T11:41:27.235Z,34.90
2018-08-23T11:43:55.789Z,35.60
2018-08-23T11:46:24.374Z,34.80
2018-08-23T11:48:53.003Z,34.60
2018-08-23T11:51:21.522Z,36.00
2018-08-23T11:53:50.158Z,34.10
2018-08-23T11:56:18.639Z,34.70
2018-08-23T11:58:47.209Z,36.10
2018-08-23T12:01:16.881Z,34.00
2018-08-23T12:03:45.829Z,34.30
2018-08-23T12:06:15.584Z,32.60
2018-08-23T12:08:44.351Z,31.90
2018-08-23T12:11:12.887Z,32.20
2018-08-23T12:13:48.189Z,32.80
2018-08-23T12:16:16.805Z,33.20
2018-08-23T12:18:46.015Z,33.00
2018-08-23T12:21:14.567Z,34.70
2018-08-23T12:23:43.117Z,36.30
2018-08-23T12:26:12.426Z,36.90
2018-08-23T12:28:46.072Z,37.80
2018-08-23T12:31:14.700Z,37.00
2018-08-23T12:33:43.238Z,37.90
2018-08-23T12:36:12.290Z,38.30
2018-08-23T12:38:46.203Z,38.90
2018-08-23T12:41:20.110Z,39.00
2018-08-23T12:43:50.111Z,39.00
2018-08-23T12:46:18.716Z,38.60
2018-08-23T12:48:47.551Z,38.90
2018-08-23T12:51:16.114Z,38.90
2018-08-23T12:53:44.724Z,38.20
2018-08-23T12:56:13.284Z,38.60
2018-08-23T12:58:41.814Z,39.10
2018-08-23T13:01:10.383Z,40.90
2018-08-23T13:03:38.947Z,45.30
2018-08-23T13:06:07.577Z,48.80
2018-08-23T13:08:36.094Z,52.00
2018-08-23T13:11:04.736Z,55.20
2018-08-23T13:13:33.239Z,58.70
2018-08-23T13:16:01.779Z,61.10
2018-08-23T13:18:30.496Z,63.20
2018-08-23T13:20:59.035Z,67.30
2018-08-23T13:23:27.574Z,68.60
2018-08-23T13:25:57.261Z,69.60
2018-08-23T13:28:26.953Z,68.80
2018-08-23T13:30:55.561Z,71.00
2018-08-23T13:33:25.912Z,73.30
2018-08-23T13:35:54.532Z,71.80
2018-08-23T13:38:23.151Z,75.90
2018-08-23T13:40:51.704Z,78.30
2018-08-23T13:43:20.322Z,73.50
2018-08-23T13:45:49.684Z,78.50
2018-08-23T13:48:18.850Z,76.80
2018-08-23T13:50:47.406Z,80.50
2018-08-23T13:53:15.965Z,82.50
2018-08-23T13:55:44.542Z,87.60
2018-08-23T13:58:13.099Z,89.80
2018-08-23T14:00:42.227Z,89.80
2018-08-23T14:03:11.571Z,91.40
2018-08-23T14:05:41.135Z,91.30
2018-08-23T14:08:09.970Z,91.30
2018-08-23T14:10:38.543Z,91.80
2018-08-23T14:13:07.380Z,92.10
2018-08-23T14:15:41.151Z,93.10
2018-08-23T14:18:09.766Z,92.30
2018-08-23T14:20:38.355Z,91.50
2018-08-23T14:23:06.921Z,93.40
2018-08-23T14:25:35.463Z,91.90
2018-08-23T14:28:04.114Z,91.80
2018-08-23T14:30:32.742Z,92.30
2018-08-23T14:33:01.462Z,93.70
2018-08-23T14:35:29.919Z,92.50
2018-08-23T14:37:58.451Z,94.00
2018-08-23T14:40:27.069Z,95.30
2018-08-23T14:42:55.572Z,96.30
2018-08-23T14:45:30.581Z,95.80
2018-08-23T14:48:04.323Z,96.10
2018-08-23T14:50:33.796Z,95.10
2018-08-23T14:53:02.660Z,95.00
2018-08-23T14:55:36.520Z,95.10
2018-08-23T14:58:05.419Z,96.00
2018-08-23T15:00:33.963Z,96.00
2018-08-23T15:03:02.542Z,94.10
2018-08-23T15:05:31.731Z,93.80
2018-08-23T15:08:00.275Z,93.20
2018-08-23T15:10:28.839Z,95.40
2018-08-23T15:12:57.439Z,94.90
2018-08-23T15:16:00.601Z,94.40
2018-08-23T15:18:29.190Z,93.60
2018-08-23T15:20:58.321Z,92.90
2018-08-23T15:23:26.854Z,92.70
2018-08-23T15:25:55.485Z,93.00
2018-08-23T15:28:24.095Z,93.30
2018-08-23T15:30:52.647Z,95.10
2018-08-23T15:33:21.216Z,94.80
2018-08-23T15:35:49.766Z,94.90
2018-08-23T15:38:18.383Z,95.10
2018-08-23T15:40:47.006Z,95.30
2018-08-23T15:43:15.592Z,95.80
2018-08-23T15:45:44.153Z,95.70
2018-08-23T15:48:13.516Z,95.30
2018-08-23T15:50:42.097Z,95.50
2018-08-23T15:53:10.767Z,94.70
2018-08-23T15:55:39.460Z,91.60
2018-08-23T15:58:07.963Z,89.90
2018-08-23T16:00:39.068Z,91.60
2018-08-23T16:03:08.436Z,91.70
2018-08-23T16:05:37.667Z,92.20
2018-08-23T16:08:06.748Z,91.80
2018-08-23T16:10:35.344Z,90.60
2018-08-23T16:13:03.886Z,92.70
2018-08-23T16:15:32.613Z,92.50
2018-08-23T16:18:06.469Z,92.50
2018-08-23T16:20:40.429Z,91.00
2018-08-23T16:23:09.018Z,90.20
2018-08-23T16:25:41.600Z,90.80
2018-08-23T16:28:10.225Z,90.40
2018-08-23T16:30:41.887Z,88.80
2018-08-23T16:33:10.821Z,86.50
2018-08-23T16:35:39.423Z,88.10
2018-08-23T16:38:08.228Z,89.80
2018-08-23T16:40:36.805Z,91.50
2018-08-23T16:43:05.473Z,91.90
2018-08-23T16:45:34.054Z,91.40
2018-08-23T16:57:11.272Z,91.70
2018-08-23T16:59:39.866Z,93.00
2018-08-23T17:02:08.429Z,92.70
2018-08-23T17:04:43.490Z,91.20
2018-08-23T17:07:13.003Z,91.00
2018-08-23T17:09:41.556Z,90.90
2018-08-23T17:12:10.240Z,90.50
2018-08-23T17:14:38.771Z,90.60
2018-08-23T17:17:12.741Z,90.30
2018-08-23T17:19:41.318Z,90.20
2018-08-23T17:22:09.882Z,90.30
2018-08-23T17:24:38.636Z,89.40
2018-08-23T17:27:07.064Z,90.00
2018-08-23T17:29:35.709Z,90.60
2018-08-23T17:32:04.237Z,90.90
2018-08-23T17:34:32.812Z,90.70
2018-08-23T17:37:01.382Z,90.70
2018-08-23T17:39:29.918Z,91.30
2018-08-23T17:41:58.614Z,91.50
2018-08-23T17:44:27.143Z,91.50
2018-08-23T17:46:55.718Z,92.00
2018-08-23T17:49:24.371Z,92.10
2018-08-23T17:51:52.905Z,91.30
2018-08-23T17:54:21.498Z,91.40
2018-08-23T17:56:50.059Z,92.10
2018-08-23T17:59:18.623Z,91.20
2018-08-23T18:01:47.239Z,91.60
2018-08-23T18:04:15.803Z,91.20
2018-08-23T18:06:44.431Z,91.60
2018-08-23T18:09:13.786Z,91.80
2018-08-23T18:11:42.656Z,93.70
2018-08-23T18:14:11.239Z,93.20
2018-08-23T18:16:45.105Z,92.70
2018-08-23T18:19:13.759Z,93.20
2018-08-23T18:21:42.806Z,92.80
2018-08-23T18:24:11.512Z,93.00
2018-08-23T18:26:40.076Z,93.60
2018-08-23T18:29:08.566Z,94.20
2018-08-23T18:31:37.177Z,95.80
2018-08-23T18:34:05.913Z,96.20
2018-08-23T18:36:34.486Z,96.70
2018-08-23T18:39:03.159Z,96.40
2018-08-23T18:41:31.687Z,96.60
2018-08-23T18:44:00.231Z,97.20
2018-08-23T18:46:28.803Z,97.50
2018-08-23T18:48:59.204Z,98.30
2018-08-23T18:51:29.602Z,98.80
2018-08-23T18:53:58.939Z,99.40
2018-08-23T18:56:28.430Z,99.80
2018-08-23T18:58:57.485Z,99.90
2018-08-23T19:01:26.046Z,99.90
2018-08-23T19:03:54.771Z,99.90
2018-08-23T19:06:27.533Z,99.90
2018-08-23T19:08:56.095Z,99.90
2018-08-23T19:11:24.751Z,99.90
2018-08-23T19:13:53.397Z,99.90
2018-08-23T19:16:27.173Z,99.90
2018-08-23T19:18:55.808Z,99.90
2018-08-23T19:21:24.448Z,99.90
2018-08-23T19:23:53.034Z,99.90
2018-08-23T19:26:21.595Z,99.90
2018-08-23T19:28:50.162Z,99.90
2018-08-23T19:31:18.724Z,99.90
2018-08-23T19:33:47.265Z,99.90
2018-08-23T19:36:15.806Z,99.90
2018-08-23T19:38:44.381Z,99.90
2018-08-23T19:41:12.999Z,99.90
2018-08-23T19:43:41.595Z,99.90
2018-08-23T19:46:15.442Z,99.90
2018-08-23T19:48:45.103Z,99.90
2018-08-23T19:51:13.692Z,99.90
2018-08-23T19:53:42.311Z,99.90
2018-08-23T19:56:10.885Z,99.90
2018-08-23T19:58:39.461Z,99.90
2018-08-23T20:01:08.075Z,99.90
2018-08-23T20:03:36.646Z,99.90
2018-08-23T20:06:05.205Z,99.90
2018-08-23T20:08:33.810Z,99.90
2018-08-23T20:11:02.412Z,99.90
2018-08-23T20:13:31.048Z,99.90
2018-08-23T20:15:59.599Z,99.90
2018-08-23T20:18:28.177Z,99.90
2018-08-23T20:20:56.858Z,99.90
2018-08-23T20:23:25.432Z,99.90
2018-08-23T20:25:54.031Z,99.90
2018-08-23T20:28:22.595Z,99.90
2018-08-23T20:30:51.140Z,99.90
2018-08-23T20:33:19.755Z,99.90
2018-08-23T20:35:48.321Z,99.90
2018-08-23T20:38:16.908Z,99.90
2018-08-23T20:40:45.438Z,99.90
2018-08-23T20:43:14.027Z,99.90
2018-08-23T20:45:42.565Z,99.90
2018-08-23T20:48:11.129Z,99.90
2018-08-23T20:50:39.710Z,99.90
2018-08-23T20:53:08.247Z,99.90
2018-08-23T20:55:36.803Z,99.90
2018-08-23T20:58:05.447Z,99.90
2018-08-23T21:00:34.059Z,99.90
2018-08-23T21:03:02.638Z,99.90
2018-08-23T21:05:31.180Z,99.90
2018-08-23T21:07:59.763Z,99.90
2018-08-23T21:10:28.304Z,99.90
2018-08-23T21:12:56.904Z,99.90
2018-08-23T21:15:25.495Z,99.90
2018-08-23T21:17:54.128Z,99.90
2018-08-23T21:20:22.710Z,99.90
2018-08-23T21:22:51.232Z,99.90
2018-08-23T21:25:19.772Z,99.90
2018-08-23T21:27:48.330Z,99.90
2018-08-23T21:30:16.862Z,99.90
2018-08-23T21:32:45.461Z,99.90
2018-08-23T21:35:14.011Z,99.90
2018-08-23T21:37:42.550Z,99.90
2018-08-23T21:40:11.135Z,99.90
2018-08-23T21:42:39.722Z,99.90
2018-08-23T21:45:08.488Z,99.90
2018-08-23T21:47:37.061Z,99.90
2018-08-23T21:50:05.701Z,99.90
2018-08-23T21:52:34.332Z,99.90
2018-08-23T21:55:02.882Z,99.90
2018-08-23T21:57:32.151Z,99.90
2018-08-23T22:00:00.712Z,99.90
2018-08-23T22:02:29.316Z,99.90
2018-08-23T22:04:58.182Z,99.90
2018-08-23T22:07:26.766Z,99.90
2018-08-23T22:09:55.754Z,99.90
2018-08-23T22:12:25.242Z,99.90
2018-08-23T22:14:54.722Z,99.90
2018-08-23T22:17:23.768Z,99.90
2018-08-23T22:19:53.442Z,99.90
2018-08-23T22:22:21.998Z,99.90
2018-08-23T22:24:50.538Z,99.90
2018-08-23T22:27:19.118Z,99.90
2018-08-23T22:29:47.639Z,99.90
2018-08-23T22:32:16.198Z,99.90
2018-08-23T22:34:44.774Z,99.90
2018-08-23T22:37:13.305Z,99.90
2018-08-23T22:39:41.989Z,99.90
2018-08-23T22:42:10.545Z,99.90
2018-08-23T22:44:39.106Z,99.90
2018-08-23T22:47:07.667Z,99.90
2018-08-23T22:49:36.204Z,99.90
2018-08-23T22:52:04.842Z,99.90
2018-08-23T22:54:33.352Z,99.90
2018-08-23T22:57:01.913Z,99.90
2018-08-23T22:59:30.489Z,99.90
2018-08-23T23:01:59.039Z,99.90
2018-08-23T23:04:28.439Z,99.90
2018-08-23T23:06:57.790Z,99.90
2018-08-23T23:09:26.426Z,99.90
2018-08-23T23:11:55.018Z,99.90
2018-08-23T23:14:23.597Z,99.90
2018-08-23T23:16:54.797Z,99.90
2018-08-23T23:19:23.950Z,99.90
2018-08-23T23:21:52.493Z,99.90
2018-08-23T23:24:26.307Z,99.90
2018-08-23T23:26:56.161Z,99.90
2018-08-23T23:29:25.162Z,99.90
2018-08-23T23:31:53.677Z,99.90
2018-08-23T23:34:22.216Z,99.90
2018-08-23T23:36:50.789Z,99.90
2018-08-23T23:39:19.412Z,99.90
2018-08-23T23:41:48.006Z,99.90
2018-08-23T23:44:16.650Z,99.90
2018-08-23T23:46:45.245Z,99.90
2018-08-23T23:49:13.773Z,99.90
2018-08-23T23:51:42.397Z,99.90
2018-08-23T23:54:11.000Z,99.90
2018-08-23T23:56:39.561Z,99.90
2018-08-23T23:59:08.133Z,99.90
